createdAt,value
2022-09-06T00:01:15.516Z,95415.31
2022-09-06T00:03:42.691Z,95412.13
2022-09-06T00:06:20.073Z,95409.44
2022-09-06T00:08:48.489Z,95418.38
2022-09-06T00:11:17.006Z,95422.31
2022-09-06T00:13:43.728Z,95416.69
2022-09-06T00:16:19.860Z,95425.50
2022-09-06T00:18:47.327Z,95433.16
2022-09-06T00:21:29.249Z,95434.88
2022-09-06T00:23:56.575Z,95428.53
2022-09-06T00:26:23.874Z,95426.19
2022-09-06T00:28:50.525Z,95421.91
2022-09-06T00:31:23.286Z,95421.19
2022-09-06T00:33:50.656Z,95416.72
2022-09-06T00:36:18.900Z,95434.91
2022-09-06T00:38:46.315Z,95438.50
2022-09-06T00:41:15.322Z,95431.16
2022-09-06T00:43:42.939Z,95431.66
2022-09-06T00:46:18.145Z,95422.69
2022-09-06T00:48:50.337Z,95423.81
2022-09-06T00:51:20.489Z,95428.00
2022-09-06T00:53:47.443Z,95423.84
2022-09-06T00:56:14.775Z,95428.38
2022-09-06T00:58:42.070Z,95431.72
2022-09-06T01:01:08.829Z,95434.97
2022-09-06T01:03:37.733Z,95437.91
2022-09-06T01:06:24.653Z,95440.66
2022-09-06T01:09:20.887Z,95443.47
2022-09-06T01:11:53.310Z,95439.97
2022-09-06T01:14:58.346Z,95438.63
2022-09-06T01:17:43.476Z,95440.41
2022-09-06T01:20:45.090Z,95439.38
2022-09-06T01:23:17.615Z,95443.38
2022-09-06T01:26:20.398Z,95445.06
2022-09-06T01:28:49.712Z,95442.19
2022-09-06T01:31:25.430Z,95448.13
2022-09-06T01:33:52.018Z,95441.59
2022-09-06T01:36:26.901Z,95446.88
2022-09-06T01:38:56.444Z,95441.84
2022-09-06T01:41:23.388Z,95444.22
2022-09-06T01:43:53.843Z,95444.78
2022-09-06T01:46:45.340Z,95434.59
2022-09-06T01:50:01.987Z,95434.81
2022-09-06T01:53:07.532Z,95431.81
2022-09-06T01:55:46.196Z,95435.50
2022-09-06T01:58:31.098Z,95433.53
2022-09-06T02:01:14.412Z,95435.03
2022-09-06T02:03:59.626Z,95424.28
2022-09-06T02:06:49.042Z,95422.78
2022-09-06T02:09:23.266Z,95421.50
2022-09-06T02:11:55.338Z,95415.34
2022-09-06T02:14:48.572Z,95414.66
2022-09-06T02:17:23.605Z,95410.38
2022-09-06T02:20:22.533Z,95419.00
2022-09-06T02:22:53.232Z,95417.94
2022-09-06T02:25:31.570Z,95410.75
2022-09-06T02:27:58.572Z,95411.19
2022-09-06T02:30:25.428Z,95412.19
2022-09-06T02:33:03.882Z,95416.88
2022-09-06T02:35:31.075Z,95417.28
2022-09-06T02:37:57.996Z,95419.31
2022-09-06T02:40:24.810Z,95415.03
2022-09-06T02:42:51.518Z,95414.44
2022-09-06T02:45:18.159Z,95414.31
2022-09-06T02:47:44.776Z,95420.19
2022-09-06T02:50:11.488Z,95410.91
2022-09-06T02:52:38.124Z,95414.94
2022-09-06T02:55:05.199Z,95416.88
2022-09-06T02:57:31.887Z,95412.91
2022-09-06T02:59:58.580Z,95410.88
2022-09-06T03:02:25.231Z,95408.75
2022-09-06T03:04:51.906Z,95409.25
2022-09-06T03:07:18.518Z,95408.38
2022-09-06T03:09:45.153Z,95413.44
2022-09-06T03:12:11.911Z,95411.88
2022-09-06T03:14:38.531Z,95408.66
2022-09-06T03:17:05.206Z,95412.06
2022-09-06T03:19:31.948Z,95416.34
2022-09-06T03:21:58.567Z,95416.94
2022-09-06T03:24:25.184Z,95420.53
2022-09-06T03:26:51.832Z,95420.78
2022-09-06T03:29:18.437Z,95421.81
2022-09-06T03:31:45.151Z,95422.19
2022-09-06T03:34:11.799Z,95425.41
2022-09-06T03:36:38.453Z,95421.28
2022-09-06T03:39:05.077Z,95417.94
2022-09-06T03:41:31.677Z,95410.78
2022-09-06T03:43:58.299Z,95409.47
2022-09-06T03:46:25.100Z,95405.50
2022-09-06T03:48:51.790Z,95405.91
2022-09-06T03:51:18.424Z,95413.53
2022-09-06T03:53:45.144Z,95410.41
2022-09-06T03:56:12.173Z,95411.31
2022-09-06T03:58:38.802Z,95406.75
2022-09-06T04:01:08.659Z,95410.94
2022-09-06T04:03:36.824Z,95411.97
2022-09-06T04:06:05.365Z,95413.06
2022-09-06T04:08:33.498Z,95406.09
2022-09-06T04:11:00.376Z,95400.41
2022-09-06T04:13:28.452Z,95401.44
2022-09-06T04:15:55.094Z,95396.09
2022-09-06T04:18:22.400Z,95402.84
2022-09-06T04:20:50.763Z,95397.09
2022-09-06T04:23:18.372Z,95394.44
2022-09-06T04:25:49.633Z,95395.75
2022-09-06T04:28:17.494Z,95392.91
2022-09-06T04:31:13.385Z,95401.28
2022-09-06T04:33:40.632Z,95402.81
2022-09-06T04:36:11.476Z,95406.97
2022-09-06T04:38:44.072Z,95401.41
2022-09-06T04:41:14.420Z,95400.72
2022-09-06T04:43:41.672Z,95408.72
2022-09-06T04:46:30.149Z,95400.38
2022-09-06T04:48:57.888Z,95405.88
2022-09-06T04:51:25.349Z,95401.59
2022-09-06T04:53:52.277Z,95408.91
2022-09-06T04:56:22.136Z,95412.22
2022-09-06T04:58:50.230Z,95405.66
2022-09-06T05:01:17.217Z,95424.00
2022-09-06T05:03:44.166Z,95415.91
2022-09-06T05:06:14.095Z,95417.78
2022-09-06T05:08:41.763Z,95421.81
2022-09-06T05:11:09.375Z,95419.22
2022-09-06T05:13:36.039Z,95415.88
2022-09-06T05:16:05.803Z,95422.16
2022-09-06T05:18:33.562Z,95419.88
2022-09-06T05:21:01.784Z,95419.09
2022-09-06T05:23:31.132Z,95415.97
2022-09-06T05:25:57.760Z,95417.16
2022-09-06T05:28:24.510Z,95416.72
2022-09-06T05:30:51.240Z,95418.34
2022-09-06T05:33:22.640Z,95420.13
2022-09-06T05:35:49.845Z,95418.03
2022-09-06T05:38:16.991Z,95419.13
2022-09-06T05:40:43.901Z,95414.38
2022-09-06T05:43:10.579Z,95409.22
2022-09-06T05:45:37.450Z,95412.03
2022-09-06T05:48:04.466Z,95411.69
2022-09-06T05:50:31.165Z,95423.06
2022-09-06T05:52:57.810Z,95418.34
2022-09-06T05:55:24.569Z,95416.75
2022-09-06T05:57:51.232Z,95423.19
2022-09-06T06:00:18.073Z,95430.06
2022-09-06T06:02:50.345Z,95427.66
2022-09-06T06:05:17.044Z,95424.38
2022-09-06T06:07:43.671Z,95427.50
2022-09-06T06:10:10.893Z,95424.81
2022-09-06T06:12:37.575Z,95424.81
2022-09-06T06:15:04.548Z,95424.16
2022-09-06T06:17:31.263Z,95420.09
2022-09-06T06:19:57.891Z,95416.53
2022-09-06T06:22:27.093Z,95412.28
2022-09-06T06:24:53.700Z,95406.38
2022-09-06T06:27:20.366Z,95403.47
2022-09-06T06:29:46.964Z,95405.75
2022-09-06T06:32:15.938Z,95412.22
2022-09-06T06:34:42.583Z,95408.50
2022-09-06T06:37:09.212Z,95414.44
2022-09-06T06:39:35.902Z,95417.56
2022-09-06T06:42:02.522Z,95418.84
2022-09-06T06:44:29.218Z,95427.00
2022-09-06T06:46:56.431Z,95421.16
2022-09-06T06:49:23.037Z,95420.75
2022-09-06T06:51:49.653Z,95418.03
2022-09-06T06:54:16.284Z,95402.94
2022-09-06T06:56:42.901Z,95410.03
2022-09-06T06:59:09.512Z,95402.03
2022-09-06T07:01:37.111Z,95402.00
2022-09-06T07:04:05.179Z,95402.91
2022-09-06T07:12:18.697Z,95391.19
2022-09-06T07:14:45.387Z,95396.41
2022-09-06T07:17:12.175Z,95388.38
2022-09-06T07:22:25.420Z,95381.53
2022-09-06T07:24:52.033Z,95381.28
2022-09-06T07:30:05.859Z,95376.72
2022-09-06T07:32:34.949Z,95375.81
2022-09-06T07:35:01.569Z,95385.53
2022-09-06T07:37:28.186Z,95390.41
2022-09-06T07:39:54.898Z,95394.03
2022-09-06T07:42:21.590Z,95409.09
2022-09-06T07:44:48.329Z,95422.44
2022-09-06T07:55:35.207Z,95450.13
2022-09-06T07:58:01.848Z,95455.81
2022-09-06T08:00:28.494Z,95462.81
2022-09-06T08:02:55.119Z,95480.25
2022-09-06T08:10:55.114Z,95524.13
2022-09-06T08:13:21.855Z,95534.97
2022-09-06T08:15:48.506Z,95530.28
2022-09-06T08:18:15.201Z,95532.59
2022-09-06T08:20:41.841Z,95526.47
2022-09-06T08:23:11.172Z,95525.06
2022-09-06T08:25:37.791Z,95537.56
2022-09-06T08:28:04.403Z,95526.88
2022-09-06T08:30:31.051Z,95514.53
2022-09-06T08:32:57.737Z,95505.91
2022-09-06T08:35:24.421Z,95495.59
2022-09-06T08:37:51.147Z,95503.94
2022-09-06T08:40:24.245Z,95511.97
2022-09-06T08:42:51.618Z,95516.50
2022-09-06T08:45:19.632Z,95537.06
2022-09-06T08:47:46.243Z,95539.53
2022-09-06T08:50:12.860Z,95534.13
2022-09-06T08:53:24.023Z,95528.31
2022-09-06T08:56:10.804Z,95540.56
2022-09-06T08:58:43.477Z,95535.47
2022-09-06T09:01:19.054Z,95539.25
2022-09-06T09:03:46.707Z,95532.72
2022-09-06T09:06:15.984Z,95512.06
2022-09-06T09:09:01.508Z,95509.38
2022-09-06T09:11:29.695Z,95508.31
2022-09-06T09:14:08.641Z,95511.47
2022-09-06T09:16:35.676Z,95504.59
2022-09-06T09:19:05.214Z,95491.81
2022-09-06T09:21:38.053Z,95481.97
2022-09-06T09:24:08.269Z,95474.16
2022-09-06T09:27:04.561Z,95468.34
2022-09-06T09:29:35.703Z,95484.44
2022-09-06T09:32:03.203Z,95483.06
2022-09-06T09:34:31.559Z,95475.66
2022-09-06T09:40:29.986Z,95504.69
2022-09-06T09:43:19.044Z,95510.88
2022-09-06T09:45:46.642Z,95511.38
2022-09-06T09:48:27.516Z,95517.81
2022-09-06T09:50:55.183Z,95505.47
2022-09-06T09:53:24.608Z,95503.22
2022-09-06T09:55:59.385Z,95497.16
2022-09-06T09:58:34.152Z,95495.56
2022-09-06T10:01:21.566Z,95491.75
2022-09-06T10:09:34.969Z,95451.06
2022-09-06T10:12:01.871Z,95446.13
2022-09-06T10:14:32.846Z,95442.66
2022-09-06T10:17:00.565Z,95438.53
2022-09-06T10:19:45.276Z,95427.31
2022-09-06T10:22:35.178Z,95429.72
2022-09-06T10:25:14.700Z,95417.81
2022-09-06T10:28:10.934Z,95410.75
2022-09-06T10:30:54.385Z,95411.41
2022-09-06T10:33:34.009Z,95409.19
2022-09-06T10:36:03.844Z,95399.44
2022-09-06T10:38:52.060Z,95397.53
2022-09-06T10:41:42.276Z,95388.25
2022-09-06T10:44:29.166Z,95387.38
2022-09-06T10:47:12.422Z,95383.88
2022-09-06T10:49:45.131Z,95383.09
2022-09-06T10:52:21.260Z,95385.81
2022-09-06T10:54:48.417Z,95371.72
2022-09-06T11:00:20.579Z,95374.91
2022-09-06T11:06:10.869Z,95360.19
2022-09-06T11:08:55.859Z,95356.84
2022-09-06T11:11:36.390Z,95359.75
2022-09-06T11:14:13.137Z,95361.97
2022-09-06T11:16:51.642Z,95350.97
2022-09-06T11:19:27.462Z,95354.75
2022-09-06T11:22:40.335Z,95356.25
2022-09-06T11:25:22.803Z,95354.22
2022-09-06T11:27:58.332Z,95359.50
2022-09-06T11:30:29.825Z,95345.97
2022-09-06T11:33:21.227Z,95333.00
2022-09-06T11:35:47.898Z,95347.25
2022-09-06T11:38:14.460Z,95332.22
2022-09-06T11:40:48.745Z,95333.19
2022-09-06T11:43:37.741Z,95325.81
2022-09-06T11:46:04.590Z,95319.59
2022-09-06T11:48:36.126Z,95314.59
2022-09-06T11:51:08.307Z,95304.44
2022-09-06T11:53:57.793Z,95300.66
2022-09-06T11:56:33.214Z,95303.63
2022-09-06T11:59:19.734Z,95307.34
2022-09-06T12:01:55.086Z,95298.25
2022-09-06T12:04:23.316Z,95289.81
2022-09-06T12:07:12.262Z,95289.38
2022-09-06T12:09:40.748Z,95291.09
2022-09-06T12:12:10.638Z,95296.56
2022-09-06T12:14:45.399Z,95299.25
2022-09-06T12:17:14.933Z,95293.34
2022-09-06T12:19:55.057Z,95293.16
2022-09-06T12:22:27.366Z,95290.38
2022-09-06T12:25:06.893Z,95282.25
2022-09-06T12:27:37.699Z,95276.22
2022-09-06T12:30:13.774Z,95281.31
2022-09-06T12:32:45.585Z,95273.59
2022-09-06T12:38:16.150Z,95264.13
2022-09-06T12:40:49.749Z,95269.91
2022-09-06T12:43:19.124Z,95267.00
2022-09-06T12:45:49.074Z,95271.63
2022-09-06T12:48:30.990Z,95269.59
2022-09-06T12:51:10.323Z,95275.31
2022-09-06T12:53:37.094Z,95272.31
2022-09-06T12:56:09.695Z,95274.06
2022-09-06T12:58:37.033Z,95270.06
2022-09-06T13:01:22.936Z,95255.38
2022-09-06T13:04:14.264Z,95252.53
2022-09-06T13:06:47.048Z,95256.81
2022-09-06T13:09:18.846Z,95255.28
2022-09-06T13:11:51.065Z,95249.78
2022-09-06T13:14:24.137Z,95255.00
2022-09-06T13:16:53.456Z,95252.56
2022-09-06T13:19:40.905Z,95255.28
2022-09-06T13:22:10.730Z,95247.44
2022-09-06T13:24:37.308Z,95242.69
2022-09-06T13:27:47.186Z,95241.34
2022-09-06T13:30:39.096Z,95239.84
2022-09-06T13:33:07.753Z,95243.06
2022-09-06T13:35:37.696Z,95240.69
2022-09-06T13:38:39.276Z,95231.06
2022-09-06T13:41:27.384Z,95233.25
2022-09-06T13:44:00.167Z,95233.72
2022-09-06T13:46:27.794Z,95225.94
2022-09-06T13:48:58.134Z,95219.41
2022-09-06T13:51:25.298Z,95222.91
2022-09-06T13:54:02.822Z,95210.00
2022-09-06T13:56:29.486Z,95207.44
2022-09-06T13:58:56.116Z,95206.03
2022-09-06T14:01:22.784Z,95205.13
2022-09-06T14:03:49.985Z,95207.75
2022-09-06T14:06:16.603Z,95204.22
2022-09-06T14:09:05.797Z,95200.16
2022-09-06T14:11:29.965Z,95191.44
2022-09-06T14:13:56.640Z,95192.16
2022-09-06T14:16:23.780Z,95197.06
2022-09-06T14:18:51.303Z,95200.44
2022-09-06T14:21:18.194Z,95203.44
2022-09-06T14:23:49.141Z,95197.03
2022-09-06T14:26:15.790Z,95203.59
2022-09-06T14:28:42.493Z,95194.59
2022-09-06T14:31:13.443Z,95199.44
2022-09-06T14:33:40.125Z,95194.06
2022-09-06T14:36:09.282Z,95195.84
2022-09-06T14:38:38.138Z,95192.66
2022-09-06T14:41:06.900Z,95190.56
2022-09-06T14:43:34.484Z,95180.66
2022-09-06T14:46:10.877Z,95186.59
2022-09-06T14:48:41.956Z,95187.59
2022-09-06T14:51:13.124Z,95186.44
2022-09-06T14:53:44.767Z,95175.69
2022-09-06T14:56:12.316Z,95174.34
2022-09-06T14:58:41.747Z,95174.81
2022-09-06T15:01:12.893Z,95182.50
2022-09-06T15:03:42.939Z,95170.78
2022-09-06T15:06:10.920Z,95181.56
2022-09-06T15:08:38.086Z,95173.34
2022-09-06T15:11:06.338Z,95172.94
2022-09-06T15:13:33.011Z,95188.25
2022-09-06T15:15:59.680Z,95179.66
2022-09-06T15:18:26.423Z,95183.09
2022-09-06T15:20:53.063Z,95178.72
2022-09-06T15:23:25.308Z,95174.56
2022-09-06T15:25:53.124Z,95181.03
2022-09-06T15:28:20.197Z,95179.16
2022-09-06T15:30:47.647Z,95178.41
2022-09-06T15:33:14.836Z,95175.59
2022-09-06T15:35:44.657Z,95169.06
2022-09-06T15:38:12.083Z,95171.88
2022-09-06T15:40:41.625Z,95169.91
2022-09-06T15:43:08.266Z,95167.53
2022-09-06T15:45:47.894Z,95159.81
2022-09-06T15:48:16.683Z,95153.13
2022-09-06T15:50:51.291Z,95157.47
2022-09-06T15:53:20.048Z,95158.31
2022-09-06T15:55:46.683Z,95153.50
2022-09-06T15:58:13.324Z,95151.53
2022-09-06T16:00:39.966Z,95152.81
2022-09-06T16:03:06.633Z,95156.03
2022-09-06T16:08:23.718Z,95148.19
2022-09-06T16:10:50.414Z,95144.41
2022-09-06T16:13:17.017Z,95146.91
2022-09-06T16:15:43.650Z,95142.84
2022-09-06T16:18:10.267Z,95141.44
2022-09-06T16:20:39.710Z,95136.19
2022-09-06T16:23:06.328Z,95135.78
2022-09-06T16:25:33.039Z,95121.75
2022-09-06T16:27:59.666Z,95118.59
2022-09-06T16:30:26.472Z,95123.47
2022-09-06T16:32:53.162Z,95120.06
2022-09-06T16:35:19.834Z,95118.94
2022-09-06T16:37:46.460Z,95114.69
2022-09-06T16:40:13.310Z,95122.44
2022-09-06T16:42:40.013Z,95113.72
2022-09-06T16:45:06.905Z,95126.28
2022-09-06T16:47:33.548Z,95117.22
2022-09-06T16:50:00.205Z,95119.69
2022-09-06T16:52:26.866Z,95116.31
2022-09-06T16:54:53.504Z,95114.06
2022-09-06T16:57:20.159Z,95113.53
2022-09-06T16:59:46.782Z,95122.56
2022-09-06T17:02:13.571Z,95124.75
2022-09-06T17:04:40.285Z,95126.13
2022-09-06T17:07:06.923Z,95128.78
2022-09-06T17:09:33.563Z,95129.41
2022-09-06T17:12:00.196Z,95134.88
2022-09-06T17:14:26.826Z,95136.44
2022-09-06T17:16:53.573Z,95150.63
2022-09-06T17:19:20.273Z,95145.97
2022-09-06T17:21:46.917Z,95152.63
2022-09-06T17:24:13.706Z,95158.41
2022-09-06T17:26:40.386Z,95146.25
2022-09-06T17:29:07.672Z,95152.59
2022-09-06T17:31:34.885Z,95148.09
2022-09-06T17:34:01.795Z,95156.16
2022-09-06T17:36:32.921Z,95147.66
2022-09-06T17:39:11.765Z,95137.53
2022-09-06T17:41:41.496Z,95140.41
2022-09-06T17:44:10.672Z,95126.28
2022-09-06T17:46:43.927Z,95130.09
2022-09-06T17:49:19.124Z,95133.13
2022-09-06T17:51:47.092Z,95123.97
2022-09-06T17:54:15.180Z,95125.03
2022-09-06T17:56:42.813Z,95129.13
2022-09-06T17:59:12.657Z,95121.94
2022-09-06T18:01:41.450Z,95119.97
2022-09-06T18:04:09.670Z,95124.19
2022-09-06T18:06:37.896Z,95123.69
2022-09-06T18:09:09.203Z,95125.25
2022-09-06T18:11:38.020Z,95118.88
2022-09-06T18:14:12.188Z,95112.78
2022-09-06T18:16:40.259Z,95115.88
2022-09-06T18:19:08.951Z,95129.91
2022-09-06T18:21:38.708Z,95160.38
2022-09-06T18:24:06.175Z,95160.25
2022-09-06T18:26:33.094Z,95163.25
2022-09-06T18:29:00.838Z,95174.22
2022-09-06T18:31:28.497Z,95176.84
2022-09-06T18:33:56.169Z,95181.75
2022-09-06T18:36:22.863Z,95174.06
2022-09-06T18:38:49.575Z,95172.41
2022-09-06T18:41:16.466Z,95167.47
2022-09-06T18:43:43.319Z,95177.38
2022-09-06T18:46:13.065Z,95184.72
2022-09-06T18:48:40.909Z,95185.09
2022-09-06T18:51:11.614Z,95188.50
2022-09-06T18:53:43.970Z,95189.78
2022-09-06T18:56:13.034Z,95188.03
2022-09-06T18:58:40.491Z,95195.31
2022-09-06T19:01:16.641Z,95197.00
2022-09-06T19:03:44.007Z,95198.19
2022-09-06T19:06:17.112Z,95205.31
2022-09-06T19:08:44.546Z,95203.16
2022-09-06T19:11:14.195Z,95205.75
2022-09-06T19:13:41.999Z,95201.41
2022-09-06T19:16:11.776Z,95204.25
2022-09-06T19:18:40.399Z,95198.09
2022-09-06T19:21:15.991Z,95202.41
2022-09-06T19:23:45.272Z,95200.34
2022-09-06T19:26:15.288Z,95214.00
2022-09-06T19:28:41.938Z,95211.47
2022-09-06T19:31:13.520Z,95214.97
2022-09-06T19:33:44.520Z,95222.88
2022-09-06T19:36:12.647Z,95218.66
2022-09-06T19:39:02.550Z,95219.16
2022-09-06T19:41:29.157Z,95215.22
2022-09-06T19:43:57.535Z,95214.19
2022-09-06T19:46:25.295Z,95210.28
2022-09-06T19:48:54.246Z,95201.00
2022-09-06T19:51:21.475Z,95206.59
2022-09-06T19:53:50.875Z,95206.78
2022-09-06T19:56:20.756Z,95221.00
2022-09-06T19:58:52.325Z,95231.94
2022-09-06T20:01:19.101Z,95237.84
2022-09-06T20:03:45.758Z,95248.34
2022-09-06T20:06:12.396Z,95243.34
2022-09-06T20:08:40.107Z,95248.63
2022-09-06T20:11:09.936Z,95248.19
2022-09-06T20:13:38.360Z,95240.53
2022-09-06T20:16:10.273Z,95242.34
2022-09-06T20:18:37.410Z,95223.56
2022-09-06T20:21:05.061Z,95226.13
2022-09-06T20:23:33.761Z,95236.78
2022-09-06T20:26:09.544Z,95220.88
2022-09-06T20:28:37.376Z,95210.09
2022-09-06T20:31:10.175Z,95205.25
2022-09-06T20:33:37.488Z,95211.66
2022-09-06T20:36:07.084Z,95216.75
2022-09-06T20:38:36.906Z,95197.53
2022-09-06T20:41:06.941Z,95203.03
2022-09-06T20:43:35.520Z,95199.47
2022-09-06T20:46:22.543Z,95206.59
2022-09-06T20:48:49.736Z,95213.34
2022-09-06T20:51:21.826Z,95223.75
2022-09-06T20:53:55.241Z,95219.03
2022-09-06T20:56:28.366Z,95221.78
2022-09-06T20:59:02.746Z,95223.53
2022-09-06T21:01:33.611Z,95226.84
2022-09-06T21:04:05.450Z,95214.19
2022-09-06T21:06:34.312Z,95215.38
2022-09-06T21:09:01.933Z,95218.00
2022-09-06T21:11:28.731Z,95217.72
2022-09-06T21:13:57.010Z,95229.16
2022-09-06T21:16:26.829Z,95231.75
2022-09-06T21:18:59.483Z,95235.00
2022-09-06T21:21:28.618Z,95233.94
2022-09-06T21:23:55.614Z,95237.66
2022-09-06T21:26:22.374Z,95234.69
2022-09-06T21:28:49.751Z,95233.91
2022-09-06T21:31:20.635Z,95236.28
2022-09-06T21:33:49.902Z,95236.56
2022-09-06T21:36:19.571Z,95237.72
2022-09-06T21:38:48.928Z,95228.00
2022-09-06T21:41:17.889Z,95240.19
2022-09-06T21:43:45.733Z,95242.34
2022-09-06T21:46:15.611Z,95245.69
2022-09-06T21:48:47.667Z,95235.53
2022-09-06T21:51:19.806Z,95234.72
2022-09-06T21:53:48.792Z,95233.00
2022-09-06T21:56:16.506Z,95235.84
2022-09-06T21:58:43.278Z,95239.41
2022-09-06T22:01:12.757Z,95238.19
2022-09-06T22:03:39.616Z,95233.13
2022-09-06T22:06:10.378Z,95206.22
2022-09-06T22:08:38.149Z,95215.28
2022-09-06T22:11:12.720Z,95219.88
2022-09-06T22:13:40.438Z,95213.09
2022-09-06T22:16:08.460Z,95207.81
2022-09-06T22:18:35.719Z,95209.84
2022-09-06T22:21:08.981Z,95212.81
2022-09-06T22:23:36.699Z,95214.97
2022-09-06T22:26:10.547Z,95222.16
2022-09-06T22:28:38.488Z,95222.38
2022-09-06T22:31:06.139Z,95225.06
2022-09-06T22:33:33.473Z,95226.84
2022-09-06T22:36:00.244Z,95225.53
2022-09-06T22:38:28.545Z,95224.91
2022-09-06T22:40:58.276Z,95228.69
2022-09-06T22:43:25.724Z,95237.94
2022-09-06T22:45:52.477Z,95235.13
2022-09-06T22:48:19.656Z,95234.97
2022-09-06T22:50:47.422Z,95238.06
2022-09-06T22:53:14.110Z,95238.31
2022-09-06T22:55:47.128Z,95241.06
2022-09-06T22:58:16.296Z,95241.69
2022-09-06T23:00:43.095Z,95241.19
2022-09-06T23:03:09.798Z,95244.09
2022-09-06T23:05:36.491Z,95236.63
2022-09-06T23:08:03.462Z,95241.03
2022-09-06T23:10:31.529Z,95240.97
2022-09-06T23:12:59.488Z,95236.25
2022-09-06T23:15:26.164Z,95240.75
2022-09-06T23:17:52.817Z,95236.91
2022-09-06T23:20:19.457Z,95241.53
2022-09-06T23:22:47.418Z,95243.91
2022-09-06T23:25:14.174Z,95242.94
2022-09-06T23:27:40.937Z,95234.88
2022-09-06T23:30:08.343Z,95239.97
2022-09-06T23:32:34.985Z,95238.53
2022-09-06T23:35:01.623Z,95240.97
2022-09-06T23:37:28.482Z,95239.25
2022-09-06T23:39:55.249Z,95234.00
2022-09-06T23:42:22.068Z,95234.81
2022-09-06T23:44:49.531Z,95244.34
2022-09-06T23:47:16.141Z,95233.56
2022-09-06T23:49:42.941Z,95244.03
2022-09-06T23:52:09.567Z,95247.72
2022-09-06T23:54:36.210Z,95254.59
2022-09-06T23:57:02.898Z,95262.25
2022-09-06T23:59:29.514Z,95269.25
